Startpagina
METAR-TAF:

METAR-TAF

Vliegvelden :

Beiroet, Libanon

breedte: 33-49N, lengte: 035-29E, hoogte: 29 m

METAR: ontbreekt

Tijdstip: 14:03 (11:03 UTC)

Verwachting

Dit bericht is 7 uur en het 3 minuten geleden gemaakt, om 04:00 UTC
Verwachting geldig van 23 om 06 UTC tot 24 om 12 UTC
Wind 10 kt uit het westzuidwesten met uitschieters tot 20 kt
Zicht: 8000 m
Verspreide wolken op 2300 ft
Tijdelijke
van 23 om 06 UTC tot 24 om 12 UTC
Zicht: 5000 m
nevel
Wijzigt naar
van 23 om 21 UTC tot 23 om 24 UTC
Wind 5 kt uit variabele richting
Wijzigt naar
van 24 om 08 UTC tot 24 om 10 UTC
Wind 10 kt uit het westzuidwesten

TAF: OLBA 230400Z 2306/2412 25010G20KT 8000 SCT023 TEMPO 2306/2412 5000 BR BECMG 2321/2324 VRB05KT BECMG 2408/2410 24010KT

Waarnemingen en weersverwachtingen van meer dan 4000 vliegvelden (METAR en TAF).

De beschikbare stations zijn de gele en rode punten op de kaart.

Ga met uw muis naar het station om de naam te zien.

Klik dan om waarnemingen en weersverwachtingen te zien.

kaart wijzigen: klik op de groene knoppen met een zwart kruis om in te zoomen, op de groene knop met een streepje om uit te zoomen of op de groene pijlen voor aangrenzende kaarten.


METAR-TAF: